Time;durP1;ratioP1;P1;durP2;ratioP2;P2;SDS_P1;SDS_P2;PMS_P1;PMS_P2;Temp;Humidity;BMP_temperature;BMP_pressure;BME280_temperature;BME280_humidity;BME280_pressure;Samples;Min_cycle;Max_cycle;Signal;HPM_P1;HPM_P2
2023/11/29 00:00:45;;;;;;;36.83;19.92;;;;;;;2.92;100.00;98603.78;5073552;28;20053;-41
2023/11/29 00:03:14;;;;;;;34.80;18.10;;;;;;;2.88;100.00;98600.44;5073835;28;20060;-43
2023/11/29 00:05:42;;;;;;;31.63;17.00;;;;;;;2.74;100.00;98603.00;5073792;28;20101;-42
2023/11/29 00:08:13;;;;;;;35.65;18.55;;;;;;;2.53;100.00;98609.41;5072919;28;20103;-42
2023/11/29 00:10:42;;;;;;;32.50;18.25;;;;;;;2.40;100.00;98625.00;5074122;28;20040;-44
2023/11/29 00:13:13;;;;;;;31.17;16.67;;;;;;;2.73;100.00;98605.72;5073121;28;20048;-43
2023/11/29 00:15:41;;;;;;;31.73;17.63;;;;;;;2.63;100.00;98610.63;5073486;28;20062;-45
2023/11/29 00:18:09;;;;;;;31.40;16.70;;;;;;;2.57;100.00;98605.69;5073556;28;20044;-42
2023/11/29 00:20:37;;;;;;;33.28;17.10;;;;;;;2.44;100.00;98617.81;5073070;28;20059;-42
2023/11/29 00:23:05;;;;;;;33.00;17.35;;;;;;;2.41;100.00;98628.47;5073182;28;20089;-43
2023/11/29 00:25:34;;;;;;;34.38;17.75;;;;;;;2.45;100.00;98619.50;5072876;28;20053;-44
2023/11/29 00:28:02;;;;;;;31.88;17.35;;;;;;;2.30;100.00;98626.41;5073316;28;20053;-43
2023/11/29 00:30:32;;;;;;;30.75;17.63;;;;;;;2.49;100.00;98631.56;5073538;28;20103;-43
2023/11/29 00:33:00;;;;;;;30.90;16.42;;;;;;;2.49;100.00;98644.72;5074149;28;20504;-42
2023/11/29 00:35:28;;;;;;;29.45;16.73;;;;;;;2.55;100.00;98647.03;5073953;28;20056;-43
2023/11/29 00:37:56;;;;;;;32.03;17.05;;;;;;;2.50;100.00;98651.69;5074145;28;20136;-42
2023/11/29 00:40:25;;;;;;;29.67;16.77;;;;;;;2.29;100.00;98651.88;5073158;28;20048;-42
2023/11/29 00:42:53;;;;;;;27.67;16.08;;;;;;;2.33;100.00;98672.78;5073363;28;20113;-43
2023/11/29 00:45:32;;;;;;;31.20;16.42;;;;;;;2.32;100.00;98669.31;5072770;28;20052;-41
2023/11/29 00:48:01;;;;;;;29.45;16.00;;;;;;;2.28;100.00;98663.31;5072445;28;20123;-42
2023/11/29 00:50:29;;;;;;;26.90;15.18;;;;;;;2.11;100.00;98670.38;5073333;28;20055;-44
2023/11/29 00:52:58;;;;;;;31.50;16.67;;;;;;;2.29;100.00;98686.06;5074717;28;20138;-43
2023/11/29 00:55:26;;;;;;;28.80;16.30;;;;;;;2.23;100.00;98694.31;5074711;28;20159;-50
2023/11/29 00:58:03;;;;;;;27.95;15.63;;;;;;;2.22;100.00;98716.28;5074132;28;20048;-43
2023/11/29 01:00:33;;;;;;;28.17;15.70;;;;;;;2.49;100.00;98719.25;5073916;28;20048;-42
2023/11/29 01:03:01;;;;;;;26.63;15.23;;;;;;;2.47;100.00;98715.84;5072674;28;20052;-42
2023/11/29 01:05:30;;;;;;;27.65;14.90;;;;;;;2.35;100.00;98720.91;5072661;28;20055;-42
2023/11/29 01:07:59;;;;;;;29.00;15.52;;;;;;;2.48;100.00;98737.75;5072223;28;20091;-43
2023/11/29 01:10:27;;;;;;;27.17;13.75;;;;;;;2.59;100.00;98743.31;5072750;28;20040;-43
2023/11/29 01:12:56;;;;;;;26.52;15.57;;;;;;;2.20;100.00;98749.69;5072496;28;20055;-43
2023/11/29 01:15:24;;;;;;;26.42;14.77;;;;;;;2.15;100.00;98737.69;5073603;28;20064;-43
2023/11/29 01:17:55;;;;;;;25.23;14.77;;;;;;;2.30;100.00;98740.41;5073567;28;20071;-44
2023/11/29 01:20:24;;;;;;;26.23;14.80;;;;;;;2.12;100.00;98741.31;5072079;28;20049;-43
2023/11/29 01:22:52;;;;;;;27.20;14.52;;;;;;;2.24;100.00;98768.81;5072250;28;20186;-51
2023/11/29 01:25:21;;;;;;;24.85;14.55;;;;;;;2.22;100.00;98758.38;5071204;28;20048;-44
2023/11/29 01:27:49;;;;;;;26.42;14.45;;;;;;;2.40;100.00;98760.97;5074901;28;20056;-43
2023/11/29 01:30:18;;;;;;;25.95;14.48;;;;;;;2.35;100.00;98770.91;5074920;28;20040;-42
2023/11/29 01:32:46;;;;;;;24.40;13.23;;;;;;;2.23;100.00;98764.47;5073730;28;20083;-43
2023/11/29 01:35:16;;;;;;;27.35;14.35;;;;;;;2.30;100.00;98755.34;5071852;28;20513;-42
2023/11/29 01:37:44;;;;;;;29.17;14.98;;;;;;;2.27;100.00;98747.59;5071950;28;20425;-43
2023/11/29 01:40:13;;;;;;;26.02;13.68;;;;;;;2.21;100.00;98748.75;5072113;28;20166;-42
2023/11/29 01:42:41;;;;;;;24.05;13.05;;;;;;;1.90;100.00;98765.19;5071628;28;20499;-43
2023/11/29 01:45:10;;;;;;;25.63;13.73;;;;;;;1.89;100.00;98775.78;5071638;28;20547;-41
2023/11/29 01:47:38;;;;;;;29.05;15.13;;;;;;;1.96;100.00;98764.91;5071804;28;20055;-43
2023/11/29 01:50:09;;;;;;;27.00;14.25;;;;;;;1.70;100.00;98771.41;5071997;28;20134;-42
2023/11/29 01:52:40;;;;;;;31.88;16.00;;;;;;;1.78;100.00;98778.09;5072003;28;20044;-43
2023/11/29 01:55:12;;;;;;;27.98;14.75;;;;;;;1.96;100.00;98778.06;5072023;28;20056;-46
2023/11/29 01:57:41;;;;;;;27.20;14.77;;;;;;;1.63;100.00;98785.75;5071887;28;20059;-42
2023/11/29 02:00:14;;;;;;;27.95;14.18;;;;;;;1.95;100.00;98792.13;5072087;28;20459;-44
2023/11/29 02:02:43;;;;;;;28.63;14.77;;;;;;;1.71;100.00;98788.03;5072190;28;20048;-44
2023/11/29 02:05:11;;;;;;;26.83;14.35;;;;;;;1.87;100.00;98803.94;5071503;28;20056;-42
2023/11/29 02:07:41;;;;;;;28.73;14.98;;;;;;;1.81;100.00;98783.19;5071911;28;20069;-43
2023/11/29 02:10:10;;;;;;;28.20;14.60;;;;;;;1.66;100.00;98790.91;5071857;28;20052;-42
2023/11/29 02:12:38;;;;;;;31.27;15.20;;;;;;;1.50;100.00;98804.81;5072180;28;20391;-44
2023/11/29 02:15:08;;;;;;;27.13;14.73;;;;;;;1.50;100.00;98799.56;5071896;28;20131;-43
2023/11/29 02:17:37;;;;;;;32.13;15.52;;;;;;;1.40;100.00;98788.63;5072426;28;20367;-42
2023/11/29 02:20:06;;;;;;;30.45;16.30;;;;;;;1.20;100.00;98802.66;5071641;28;20044;-43
2023/11/29 02:22:37;;;;;;;30.88;16.20;;;;;;;1.35;100.00;98801.09;5071722;28;20056;-42
2023/11/29 02:25:07;;;;;;;33.22;16.23;;;;;;;1.25;100.00;98832.19;5071398;28;20052;-47
2023/11/29 02:27:36;;;;;;;31.73;16.67;;;;;;;1.31;100.00;98833.72;5071546;28;20045;-42
2023/11/29 02:30:05;;;;;;;31.45;16.05;;;;;;;1.33;100.00;98847.63;5072458;28;20045;-42
2023/11/29 02:32:33;;;;;;;36.20;17.45;;;;;;;1.47;100.00;98847.88;5074782;28;20044;-42
2023/11/29 02:35:01;;;;;;;31.42;16.42;;;;;;;1.45;100.00;98841.84;5074956;28;20110;-43
2023/11/29 02:37:30;;;;;;;31.35;15.60;;;;;;;1.43;100.00;98856.78;5074734;28;20048;-43
2023/11/29 02:39:58;;;;;;;32.97;15.73;;;;;;;1.47;100.00;98862.78;5074693;28;20131;-42
2023/11/29 02:42:28;;;;;;;30.45;15.77;;;;;;;1.34;100.00;98862.47;5074700;28;20127;-51
2023/11/29 02:44:56;;;;;;;33.65;17.10;;;;;;;1.36;100.00;98860.63;5074503;28;20079;-42
2023/11/29 02:47:25;;;;;;;35.75;16.77;;;;;;;1.42;100.00;98866.44;5074835;28;20060;-43
2023/11/29 02:49:53;;;;;;;32.25;16.75;;;;;;;1.54;100.00;98875.53;5074897;28;20067;-42
2023/11/29 02:52:21;;;;;;;36.10;18.25;;;;;;;1.48;100.00;98875.84;5074986;28;20075;-43
2023/11/29 02:54:50;;;;;;;37.05;18.35;;;;;;;1.37;100.00;98878.09;5074470;28;20044;-43
2023/11/29 02:57:18;;;;;;;34.50;17.27;;;;;;;1.22;100.00;98889.28;5074389;28;20123;-43
2023/11/29 02:59:48;;;;;;;33.47;17.00;;;;;;;1.32;100.00;98893.19;5074571;28;20107;-41
2023/11/29 03:02:16;;;;;;;34.13;17.05;;;;;;;1.43;100.00;98898.84;5074872;28;20052;-42
2023/11/29 03:04:45;;;;;;;36.00;17.73;;;;;;;1.46;100.00;98901.34;5074714;28;20048;-43
2023/11/29 03:07:13;;;;;;;35.17;17.20;;;;;;;1.43;100.00;98911.97;5074629;28;20060;-43
2023/11/29 03:09:42;;;;;;;34.35;17.02;;;;;;;1.31;100.00;98904.63;5074660;28;20056;-42
2023/11/29 03:12:10;;;;;;;36.63;18.02;;;;;;;1.30;100.00;98926.56;5074450;28;20048;-43
2023/11/29 03:14:38;;;;;;;37.03;18.23;;;;;;;1.19;100.00;98926.19;5074441;28;20052;-42
2023/11/29 03:17:08;;;;;;;36.65;17.92;;;;;;;1.20;100.00;98934.00;5074339;28;20090;-43
2023/11/29 03:19:36;;;;;;;37.05;18.10;;;;;;;1.09;100.00;98937.09;5074340;28;20051;-42
2023/11/29 03:22:05;;;;;;;36.53;17.15;;;;;;;1.15;100.00;98934.19;5074361;28;20413;-42
2023/11/29 03:24:33;;;;;;;36.42;17.75;;;;;;;1.46;100.00;98935.50;5074095;28;20056;-43
2023/11/29 03:27:01;;;;;;;41.28;18.73;;;;;;;1.35;100.00;98932.47;5074162;28;20057;-43
2023/11/29 03:29:30;;;;;;;36.97;17.92;;;;;;;1.35;100.00;98937.72;5074345;28;20049;-43
2023/11/29 03:31:58;;;;;;;39.85;17.77;;;;;;;1.47;100.00;98946.88;5074420;28;20154;-42
2023/11/29 03:34:28;;;;;;;35.45;17.50;;;;;;;1.37;100.00;98939.38;5074082;28;20048;-44
2023/11/29 03:36:56;;;;;;;38.10;19.40;;;;;;;1.12;100.00;98950.09;5073631;28;20485;-42
2023/11/29 03:39:24;;;;;;;37.25;18.92;;;;;;;1.17;100.00;98946.44;5073622;28;20045;-41
2023/11/29 03:41:53;;;;;;;38.17;18.40;;;;;;;1.25;100.00;98939.03;5073341;28;20049;-42
2023/11/29 03:44:21;;;;;;;36.88;18.35;;;;;;;1.29;100.00;98953.78;5073956;28;20113;-44
2023/11/29 03:46:49;;;;;;;37.25;17.80;;;;;;;1.26;100.00;98954.75;5073899;28;20686;-44
2023/11/29 03:49:17;;;;;;;38.13;19.85;;;;;;;1.17;100.00;98964.81;5073682;28;20459;-43
2023/11/29 03:51:47;;;;;;;38.40;17.77;;;;;;;1.30;100.00;98969.47;5073670;28;20049;-42
2023/11/29 03:54:16;;;;;;;37.80;18.60;;;;;;;1.29;100.00;98980.03;5073720;28;20044;-43
2023/11/29 03:56:45;;;;;;;36.38;18.50;;;;;;;1.21;100.00;98976.88;5073621;28;20068;-42
2023/11/29 03:59:13;;;;;;;40.30;18.40;;;;;;;1.00;100.00;98984.75;5073554;28;20136;-43
2023/11/29 04:01:41;;;;;;;43.08;19.20;;;;;;;0.94;100.00;98990.25;5074290;28;20060;-43
2023/11/29 04:04:10;;;;;;;40.13;18.83;;;;;;;0.96;100.00;98995.41;5073284;28;20136;-42
2023/11/29 04:06:38;;;;;;;37.53;18.38;;;;;;;1.18;100.00;98985.75;5073640;28;20128;-42
2023/11/29 04:09:08;;;;;;;33.88;17.45;;;;;;;1.15;100.00;98999.84;5073504;28;20056;-42
2023/11/29 04:11:36;;;;;;;38.40;18.00;;;;;;;1.11;100.00;99007.94;5073550;28;20048;-46
2023/11/29 04:14:05;;;;;;;38.78;19.02;;;;;;;1.23;100.00;99017.06;5073174;28;20041;-42
2023/11/29 04:16:33;;;;;;;41.05;19.20;;;;;;;1.21;100.00;99018.91;5073195;28;20412;-43
2023/11/29 04:19:02;;;;;;;36.40;18.23;;;;;;;1.17;100.00;99027.84;5072471;28;20083;-41
2023/11/29 04:21:33;;;;;;;44.42;19.52;;;;;;;1.30;100.00;99031.66;5073383;28;20110;-45
2023/11/29 04:24:01;;;;;;;41.13;19.20;;;;;;;1.07;100.00;99043.97;5073320;28;20080;-44
2023/11/29 04:26:33;;;;;;;37.53;18.42;;;;;;;1.01;100.00;99044.22;5073514;28;20098;-42
2023/11/29 04:29:03;;;;;;;37.50;18.25;;;;;;;0.94;100.00;99048.00;5073156;28;20080;-46
2023/11/29 04:31:32;;;;;;;42.15;19.33;;;;;;;0.66;100.00;99044.75;5073377;28;20123;-42
2023/11/29 04:34:01;;;;;;;38.03;18.55;;;;;;;0.69;100.00;99053.38;5073404;28;20045;-43
2023/11/29 04:36:45;;;;;;;40.08;18.92;;;;;;;0.74;100.00;99054.03;5072831;28;20052;-41
2023/11/29 04:39:18;;;;;;;41.28;18.83;;;;;;;0.79;100.00;99064.38;5072479;28;20056;-43
2023/11/29 04:41:48;;;;;;;36.63;18.45;;;;;;;0.95;100.00;99069.84;5072653;28;20048;-43
2023/11/29 04:44:16;;;;;;;39.17;18.42;;;;;;;0.98;100.00;99075.00;5072758;28;20842;-43
2023/11/29 04:46:45;;;;;;;37.33;18.20;;;;;;;0.90;100.00;99074.44;5072647;28;20048;-43
2023/11/29 04:49:14;;;;;;;39.10;18.13;;;;;;;0.95;100.00;99078.59;5072478;28;20139;-44
2023/11/29 04:51:42;;;;;;;40.05;17.10;;;;;;;0.92;100.00;99086.59;5072492;28;20135;-43
2023/11/29 04:54:11;;;;;;;34.40;16.90;;;;;;;1.02;100.00;99087.94;5071963;28;20142;-42
2023/11/29 04:56:39;;;;;;;36.38;17.63;;;;;;;0.91;100.00;99084.03;5072338;28;20113;-42
2023/11/29 04:59:09;;;;;;;35.75;17.25;;;;;;;1.02;100.00;99090.56;5072701;28;20045;-44
2023/11/29 05:01:38;;;;;;;35.88;16.95;;;;;;;0.99;100.00;99088.06;5072166;28;20445;-43
2023/11/29 05:04:06;;;;;;;35.85;17.75;;;;;;;1.02;100.00;99087.09;5072056;28;20041;-42
2023/11/29 05:06:34;;;;;;;36.42;17.48;;;;;;;0.79;100.00;99082.75;5071834;28;20139;-41
2023/11/29 05:09:05;;;;;;;37.53;17.73;;;;;;;0.89;100.00;99075.38;5071901;28;20052;-41
2023/11/29 05:11:33;;;;;;;31.80;14.90;;;;;;;0.71;100.00;99072.53;5072236;28;20135;-46
2023/11/29 05:14:02;;;;;;;33.15;15.82;;;;;;;0.84;100.00;99079.00;5072240;28;20579;-42
2023/11/29 05:16:33;;;;;;;34.05;16.15;;;;;;;0.85;100.00;99074.63;5072441;28;20075;-43
2023/11/29 05:19:02;;;;;;;33.15;16.10;;;;;;;0.77;100.00;99074.06;5072167;28;20087;-43
2023/11/29 05:21:31;;;;;;;35.05;16.02;;;;;;;0.81;100.00;99081.78;5071921;28;20059;-42
2023/11/29 05:23:59;;;;;;;32.55;16.55;;;;;;;0.71;100.00;99087.44;5071896;28;20130;-42
2023/11/29 05:26:27;;;;;;;34.15;15.52;;;;;;;0.68;100.00;99077.06;5072039;28;20082;-42
2023/11/29 05:28:56;;;;;;;33.00;14.85;;;;;;;0.54;100.00;99081.06;5071721;28;20086;-42
2023/11/29 05:31:24;;;;;;;33.40;16.17;;;;;;;0.52;100.00;99093.38;5072124;28;20127;-45
2023/11/29 05:33:54;;;;;;;29.88;15.55;;;;;;;0.40;100.00;99098.25;5071846;28;20133;-42
2023/11/29 05:36:24;;;;;;;32.15;16.55;;;;;;;0.45;100.00;99088.41;5071825;28;20048;-41
2023/11/29 05:38:53;;;;;;;33.35;15.57;;;;;;;0.46;100.00;99101.47;5071908;28;20573;-43
2023/11/29 05:41:21;;;;;;;34.08;15.57;;;;;;;0.54;100.00;99107.28;5072042;28;20373;-41
2023/11/29 05:43:51;;;;;;;32.25;15.27;;;;;;;0.46;100.00;99119.84;5071975;28;20059;-44
2023/11/29 05:46:19;;;;;;;33.85;15.50;;;;;;;0.70;100.00;99123.34;5072068;28;20048;-42
2023/11/29 05:48:48;;;;;;;32.90;15.18;;;;;;;0.76;100.00;99124.84;5071765;28;20193;-43
2023/11/29 05:51:18;;;;;;;29.42;15.55;;;;;;;0.69;100.00;99142.63;5071583;28;20420;-41
2023/11/29 05:53:46;;;;;;;32.80;16.17;;;;;;;0.64;100.00;99138.44;5072147;28;20052;-43
2023/11/29 05:56:14;;;;;;;34.15;14.68;;;;;;;0.72;100.00;99136.41;5072011;28;20055;-46
2023/11/29 05:58:43;;;;;;;28.52;14.18;;;;;;;0.63;100.00;99136.72;5072133;28;20041;-42
2023/11/29 06:01:11;;;;;;;29.35;15.43;;;;;;;0.67;100.00;99146.19;5072241;28;20045;-41
2023/11/29 06:03:39;;;;;;;32.13;16.42;;;;;;;0.80;100.00;99147.47;5071781;28;20074;-43
2023/11/29 06:06:08;;;;;;;32.70;15.52;;;;;;;0.77;100.00;99165.94;5075068;28;20206;-41
2023/11/29 06:08:40;;;;;;;30.35;14.90;;;;;;;0.68;100.00;99161.06;5075588;28;20056;-42
2023/11/29 06:11:09;;;;;;;33.95;15.57;;;;;;;0.55;100.00;99171.13;5076112;28;20048;-43
2023/11/29 06:13:37;;;;;;;30.02;13.93;;;;;;;0.46;100.00;99166.22;5076084;28;20131;-43
2023/11/29 06:16:06;;;;;;;28.80;13.85;;;;;;;0.46;100.00;99161.81;5075192;28;20044;-42
2023/11/29 06:18:34;;;;;;;29.83;14.85;;;;;;;0.50;100.00;99178.31;5075454;28;20181;-42
2023/11/29 06:21:05;;;;;;;28.23;13.98;;;;;;;0.53;100.00;99189.56;5074284;28;20057;-43
2023/11/29 06:23:34;;;;;;;25.50;13.20;;;;;;;0.80;100.00;99197.34;5075329;28;20049;-42
2023/11/29 06:26:04;;;;;;;27.13;13.65;;;;;;;0.84;100.00;99214.69;5075428;28;20078;-43
2023/11/29 06:28:35;;;;;;;28.98;13.90;;;;;;;0.70;100.00;99224.84;5072908;28;20048;-42
2023/11/29 06:31:03;;;;;;;29.83;13.30;;;;;;;0.56;100.00;99234.03;5074121;28;20064;-42
2023/11/29 06:33:32;;;;;;;25.48;12.90;;;;;;;0.37;100.00;99235.59;5073746;28;20044;-42
2023/11/29 06:36:03;;;;;;;27.42;13.23;;;;;;;0.24;100.00;99234.34;5073389;28;20064;-41
2023/11/29 06:38:31;;;;;;;26.92;13.13;;;;;;;0.71;100.00;99235.28;5073933;28;20044;-42
2023/11/29 06:41:00;;;;;;;29.08;13.75;;;;;;;0.82;100.00;99237.50;5073996;28;20520;-43
2023/11/29 06:43:31;;;;;;;28.02;13.18;;;;;;;0.79;100.00;99225.38;5064404;28;20489;-42
2023/11/29 06:46:02;;;;;;;27.02;13.20;;;;;;;0.88;100.00;99229.41;5074083;28;20048;-43
2023/11/29 06:48:31;;;;;;;29.90;13.82;;;;;;;0.79;100.00;99238.50;5073965;28;20052;-43
2023/11/29 06:51:02;;;;;;;26.95;13.25;;;;;;;0.37;100.00;99240.84;5074016;28;20048;-41
2023/11/29 06:53:33;;;;;;;26.85;12.65;;;;;;;0.73;100.00;99238.69;5072208;28;20475;-42
2023/11/29 06:56:02;;;;;;;24.55;12.48;;;;;;;0.80;100.00;99247.22;5074286;28;20448;-43
2023/11/29 06:58:32;;;;;;;26.88;12.02;;;;;;;0.91;100.00;99246.81;5073344;28;20080;-41
2023/11/29 07:01:00;;;;;;;26.40;12.10;;;;;;;0.87;100.00;99248.72;5073237;28;20136;-46
2023/11/29 07:03:29;;;;;;;25.10;12.43;;;;;;;1.04;100.00;99262.06;5071816;28;20135;-42
2023/11/29 07:05:58;;;;;;;26.17;12.80;;;;;;;0.85;100.00;99268.88;5073192;28;20124;-42
2023/11/29 07:08:30;;;;;;;27.52;12.93;;;;;;;0.92;100.00;99280.91;5072781;28;20140;-41
2023/11/29 07:11:01;;;;;;;27.58;12.02;;;;;;;0.79;100.00;99274.38;5073441;28;20419;-42
2023/11/29 07:13:30;;;;;;;26.65;12.73;;;;;;;0.80;100.00;99282.19;5071354;28;20044;-42
2023/11/29 07:15:59;;;;;;;28.42;12.20;;;;;;;0.98;100.00;99300.84;5072595;28;20091;-42
2023/11/29 07:18:28;;;;;;;25.63;11.80;;;;;;;1.02;100.00;99308.53;5072392;28;20044;-42
2023/11/29 07:20:57;;;;;;;23.05;11.85;;;;;;;1.07;100.00;99316.25;5072872;28;20473;-43
2023/11/29 07:23:25;;;;;;;26.67;12.60;;;;;;;1.40;100.00;99317.63;5071683;28;20426;-43
2023/11/29 07:25:54;;;;;;;23.23;11.57;;;;;;;1.44;100.00;99326.22;5072241;28;20056;-42
2023/11/29 07:28:24;;;;;;;22.52;11.10;;;;;;;1.26;100.00;99337.47;5072685;28;20053;-42
2023/11/29 07:30:52;;;;;;;24.80;11.57;;;;;;;1.06;100.00;99340.78;5072707;28;20143;-42
2023/11/29 07:33:22;;;;;;;21.48;11.15;;;;;;;1.09;100.00;99340.69;5071132;28;20067;-42
2023/11/29 07:35:51;;;;;;;22.50;11.13;;;;;;;1.08;100.00;99344.22;5076330;28;20059;-42
2023/11/29 07:38:19;;;;;;;26.83;11.50;;;;;;;1.11;100.00;99344.97;5072409;28;20520;-43
2023/11/29 07:40:47;;;;;;;26.75;11.45;;;;;;;1.37;100.00;99335.28;5072960;28;20127;-43
2023/11/29 07:43:17;;;;;;;25.77;11.77;;;;;;;1.46;100.00;99349.84;5071504;28;20140;-43
2023/11/29 07:45:46;;;;;;;25.08;11.32;;;;;;;1.69;100.00;99350.69;5072002;28;20131;-44
2023/11/29 07:48:14;;;;;;;19.92;10.73;;;;;;;1.28;100.00;99356.66;5072449;28;20052;-44
2023/11/29 07:50:44;;;;;;;21.48;11.13;;;;;;;1.59;100.00;99362.47;5072390;28;20053;-41
2023/11/29 07:53:12;;;;;;;25.15;11.35;;;;;;;1.57;100.00;99368.69;5071207;28;20410;-43
2023/11/29 07:55:40;;;;;;;20.83;11.25;;;;;;;1.35;100.00;99371.25;5072477;28;20527;-43
2023/11/29 07:58:08;;;;;;;25.23;12.57;;;;;;;1.68;100.00;99374.41;5072045;28;20052;-41
2023/11/29 08:00:41;;;;;;;22.70;11.05;;;;;;;1.67;100.00;99381.44;5072407;28;20057;-42
2023/11/29 08:03:10;;;;;;;20.52;10.65;;;;;;;1.56;100.00;99388.03;5071315;28;20104;-48
2023/11/29 08:05:40;;;;;;;25.17;12.02;;;;;;;1.46;100.00;99387.50;5072413;28;20056;-43
2023/11/29 08:08:09;;;;;;;22.98;11.25;;;;;;;1.72;100.00;99376.84;5072074;28;20049;-44
2023/11/29 08:10:38;;;;;;;21.45;11.20;;;;;;;1.93;100.00;99387.47;5071886;28;20049;-42
2023/11/29 08:13:07;;;;;;;22.38;11.55;;;;;;;1.99;100.00;99387.22;5070577;28;20048;-43
2023/11/29 08:15:37;;;;;;;22.42;11.23;;;;;;;1.67;100.00;99391.09;5072345;28;20111;-42
2023/11/29 08:18:05;;;;;;;24.05;11.52;;;;;;;1.87;100.00;99395.59;5071861;28;20066;-42
2023/11/29 08:20:33;;;;;;;22.10;11.07;;;;;;;1.79;100.00;99395.03;5072251;28;20048;-44
2023/11/29 08:23:02;;;;;;;21.02;11.10;;;;;;;2.09;100.00;99396.47;5070470;28;20048;-42
2023/11/29 08:25:31;;;;;;;21.98;11.52;;;;;;;1.91;100.00;99403.31;5071253;28;20052;-42
2023/11/29 08:27:59;;;;;;;21.30;11.20;;;;;;;2.13;100.00;99394.59;5071150;28;20052;-42
2023/11/29 08:30:28;;;;;;;24.88;11.25;;;;;;;2.23;100.00;99411.72;5071434;28;20351;-43
2023/11/29 08:32:58;;;;;;;20.77;10.93;;;;;;;1.99;100.00;99410.91;5070533;28;20056;-43
2023/11/29 08:35:26;;;;;;;22.50;11.80;;;;;;;2.05;100.00;99418.56;5071601;28;20136;-46
2023/11/29 08:37:54;;;;;;;21.60;11.70;;;;;;;1.86;100.00;99414.94;5071720;28;20135;-48
2023/11/29 08:40:23;;;;;;;23.70;10.80;;;;;;;1.71;100.00;99432.13;5071741;28;20634;-43
2023/11/29 08:42:53;;;;;;;21.45;10.68;;;;;;;1.46;100.00;99431.31;5070074;28;20044;-43
2023/11/29 08:45:22;;;;;;;21.42;11.02;;;;;;;1.46;100.00;99432.19;5071409;28;20045;-41
2023/11/29 08:47:51;;;;;;;22.15;10.65;;;;;;;1.31;100.00;99437.97;5069832;28;20098;-41
2023/11/29 08:50:19;;;;;;;26.15;11.68;;;;;;;1.57;100.00;99437.03;5060750;28;20053;-41
2023/11/29 08:52:49;;;;;;;22.77;11.60;;;;;;;1.61;100.00;99439.50;5069154;28;20137;-42
2023/11/29 08:55:18;;;;;;;24.02;11.70;;;;;;;1.71;100.00;99438.25;5069636;28;20462;-41
2023/11/29 08:57:46;;;;;;;24.92;11.45;;;;;;;1.81;100.00;99445.78;5070584;28;20096;-43
2023/11/29 09:00:20;;;;;;;23.90;11.60;;;;;;;1.68;100.00;99450.66;5070732;28;20486;-43
2023/11/29 09:02:48;;;;;;;27.23;11.68;;;;;;;1.81;100.00;99456.31;5069808;28;20048;-41
2023/11/29 09:05:19;;;;;;;24.85;11.52;;;;;;;1.95;100.00;99454.88;5068216;28;20049;-42
2023/11/29 09:07:48;;;;;;;24.80;12.45;;;;;;;2.04;100.00;99464.22;5070744;28;20045;-42
2023/11/29 09:10:17;;;;;;;23.48;11.73;;;;;;;1.85;100.00;99463.19;5070755;28;20130;-44
2023/11/29 09:12:46;;;;;;;20.90;10.68;;;;;;;1.73;100.00;99460.06;5069353;28;20052;-42
2023/11/29 09:15:15;;;;;;;23.75;11.57;;;;;;;1.75;100.00;99467.06;5070565;28;20052;-41
2023/11/29 09:17:46;;;;;;;23.80;11.52;;;;;;;1.91;100.00;99462.94;5070982;28;20129;-42
2023/11/29 09:20:15;;;;;;;22.02;11.15;;;;;;;1.86;100.00;99465.75;5071410;28;20478;-43
2023/11/29 09:22:43;;;;;;;23.70;11.70;;;;;;;1.97;100.00;99468.84;5070591;28;20068;-42
2023/11/29 09:25:12;;;;;;;23.75;11.50;;;;;;;1.82;100.00;99471.16;5068720;28;20048;-43
2023/11/29 09:27:40;;;;;;;25.00;11.82;;;;;;;1.99;100.00;99469.63;5070241;28;20045;-42
2023/11/29 09:30:10;;;;;;;22.33;11.73;;;;;;;2.00;100.00;99473.09;5070581;28;20113;-42
2023/11/29 09:32:41;;;;;;;22.58;10.82;;;;;;;2.08;100.00;99478.09;5061388;28;20075;-43
2023/11/29 09:35:09;;;;;;;25.52;11.52;;;;;;;2.03;100.00;99477.38;5070389;28;20052;-42
2023/11/29 09:37:38;;;;;;;21.27;10.75;;;;;;;2.06;100.00;99482.56;5070192;28;20044;-41
2023/11/29 09:40:08;;;;;;;22.25;11.45;;;;;;;2.08;100.00;99486.84;5068555;28;20040;-41
2023/11/29 09:42:37;;;;;;;23.88;11.20;;;;;;;2.22;100.00;99475.78;5069118;28;20071;-44
2023/11/29 09:45:11;;;;;;;24.83;11.45;;;;;;;2.28;100.00;99484.31;5070143;28;20045;-43
2023/11/29 09:47:41;;;;;;;22.98;10.85;;;;;;;2.27;100.00;99479.97;5070148;28;20052;-42
2023/11/29 09:50:10;;;;;;;27.10;12.90;;;;;;;2.30;100.00;99490.34;5069319;28;20048;-42
2023/11/29 09:52:41;;;;;;;29.70;12.30;;;;;;;2.25;100.00;99484.44;5069017;28;20049;-42
2023/11/29 09:55:09;;;;;;;23.58;11.63;;;;;;;2.25;100.00;99484.44;5069986;28;20049;-43
2023/11/29 09:57:38;;;;;;;26.63;12.23;;;;;;;2.23;100.00;99485.41;5069857;28;20504;-44
2023/11/29 10:00:12;;;;;;;37.67;17.70;;;;;;;2.27;100.00;99494.88;5070156;28;20139;-42
2023/11/29 10:02:42;;;;;;;79.95;37.70;;;;;;;2.36;100.00;99493.69;5068743;28;20529;-44
2023/11/29 10:05:13;;;;;;;30.48;14.93;;;;;;;2.27;100.00;99503.63;5069582;28;20040;-43
2023/11/29 10:07:42;;;;;;;25.48;13.35;;;;;;;2.14;100.00;99502.41;5069654;28;20581;-43
2023/11/29 10:10:11;;;;;;;22.92;11.32;;;;;;;2.14;100.00;99501.56;5070202;28;20058;-42
2023/11/29 10:12:41;;;;;;;23.20;11.65;;;;;;;2.27;100.00;99511.53;5069089;28;20171;-41
2023/11/29 10:15:13;;;;;;;25.33;11.55;;;;;;;2.22;100.00;99507.34;5069964;28;20052;-41
2023/11/29 10:17:46;;;;;;;25.40;11.50;;;;;;;2.37;100.00;99500.66;5070331;28;20052;-42
2023/11/29 10:20:15;;;;;;;23.88;11.05;;;;;;;2.17;100.00;99498.78;5069720;28;20490;-42
2023/11/29 10:22:48;;;;;;;25.75;11.48;;;;;;;2.27;100.00;99511.53;5068690;28;20606;-43
2023/11/29 10:25:19;;;;;;;22.30;11.15;;;;;;;2.39;100.00;99504.94;5069674;28;20057;-42
2023/11/29 10:27:50;;;;;;;24.77;11.65;;;;;;;2.26;100.00;99515.09;5070182;28;20083;-42
2023/11/29 10:30:18;;;;;;;24.27;11.50;;;;;;;2.23;100.00;99514.34;5070401;28;20079;-42
2023/11/29 10:32:49;;;;;;;22.45;10.55;;;;;;;2.41;100.00;99515.41;5068295;28;20552;-44
2023/11/29 10:35:19;;;;;;;24.08;11.82;;;;;;;2.46;100.00;99508.19;5069580;28;20077;-43
2023/11/29 10:37:56;;;;;;;23.15;11.10;;;;;;;2.34;100.00;99514.81;5069518;28;20094;-43
2023/11/29 10:40:27;;;;;;;23.50;11.23;;;;;;;2.21;100.00;99511.75;5062955;28;20049;-41
2023/11/29 10:43:00;;;;;;;21.30;11.00;;;;;;;2.29;100.00;99509.69;5068853;28;20052;-44
2023/11/29 10:45:30;;;;;;;22.55;10.80;;;;;;;2.45;100.00;99512.59;5094059;28;20378;-43
2023/11/29 10:48:03;;;;;;;23.88;11.07;;;;;;;2.43;100.00;99513.59;5069475;28;20136;-43
2023/11/29 10:50:32;;;;;;;24.48;11.00;;;;;;;2.52;100.00;99502.72;5069727;28;20090;-43
2023/11/29 10:53:01;;;;;;;21.35;10.35;;;;;;;2.65;100.00;99503.94;5071793;28;20085;-42
2023/11/29 10:55:35;;;;;;;21.80;11.20;;;;;;;2.61;100.00;99498.84;5073228;28;20054;-44
2023/11/29 10:58:14;;;;;;;23.98;11.77;;;;;;;2.72;100.00;99508.03;5066307;28;20076;-44
2023/11/29 11:00:47;;;;;;;21.13;10.55;;;;;;;2.68;100.00;99513.47;5073009;28;20045;-42
2023/11/29 11:03:51;;;;;;;21.35;10.05;;;;;;;2.76;100.00;99517.53;5071868;28;20414;-43
2023/11/29 11:06:37;;;;;;;23.15;11.02;;;;;;;2.66;100.00;99510.91;5010525;28;20205;-42
2023/11/29 11:09:26;;;;;;;20.88;9.90;;;;;;;2.79;100.00;99512.13;5010607;28;20053;-42
2023/11/29 11:11:54;;;;;;;21.23;10.38;;;;;;;2.78;100.00;99515.69;5051487;28;20059;-43
2023/11/29 11:14:24;;;;;;;23.05;10.48;;;;;;;2.83;100.00;99519.00;5071066;28;20044;-44
2023/11/29 11:17:00;;;;;;;29.90;10.55;;;;;;;2.92;100.00;99517.78;5073106;28;20049;-48
2023/11/29 11:19:40;;;;;;;25.33;9.88;;;;;;;2.96;100.00;99518.50;5072423;28;20060;-42
2023/11/29 11:22:10;;;;;;;23.73;10.18;;;;;;;2.95;100.00;99520.28;5072578;28;20051;-43
2023/11/29 11:24:57;;;;;;;21.38;10.15;;;;;;;3.05;100.00;99526.88;5071096;28;20083;-43
2023/11/29 11:27:30;;;;;;;19.25;9.73;;;;;;;2.95;100.00;99530.81;5072368;28;20567;-43